createdAt,value
2019-02-22T00:02:10.705Z,50.43
2019-02-22T00:04:38.093Z,50.10
2019-02-22T00:07:05.617Z,52.17
2019-02-22T00:09:33.089Z,43.93
2019-02-22T00:12:00.745Z,47.67
2019-02-22T00:14:28.474Z,50.73
2019-02-22T00:16:56.325Z,49.43
2019-02-22T00:19:24.185Z,50.87
2019-02-22T00:21:52.130Z,49.43
2019-02-22T00:24:19.588Z,50.27
2019-02-22T00:26:47.074Z,51.43
2019-02-22T00:29:14.800Z,49.80
2019-02-22T00:31:42.609Z,52.17
2019-02-22T00:34:10.155Z,50.93
2019-02-22T00:36:38.023Z,48.43
2019-02-22T00:39:05.810Z,50.03
2019-02-22T00:41:33.359Z,47.60
2019-02-22T00:44:00.830Z,48.47
2019-02-22T00:46:28.238Z,48.43
2019-02-22T00:48:55.719Z,48.33
2019-02-22T00:51:23.193Z,49.97
2019-02-22T00:53:50.560Z,46.90
2019-02-22T00:56:17.900Z,46.07
2019-02-22T00:58:45.292Z,48.23
2019-02-22T01:01:12.691Z,45.90
2019-02-22T01:03:40.204Z,46.13
2019-02-22T01:06:07.598Z,46.63
2019-02-22T01:08:35.077Z,50.67
2019-02-22T01:11:02.773Z,44.73
2019-02-22T01:13:30.232Z,50.67
2019-02-22T01:15:58.386Z,47.20
2019-02-22T01:18:25.945Z,47.27
2019-02-22T01:20:54.666Z,52.90
2019-02-22T01:23:22.715Z,52.50
2019-02-22T01:25:50.803Z,50.93
2019-02-22T01:28:18.696Z,52.23
2019-02-22T01:30:46.130Z,47.37
2019-02-22T01:33:13.862Z,48.27
2019-02-22T01:35:41.287Z,49.20
2019-02-22T01:38:09.188Z,50.53
2019-02-22T01:40:43.545Z,49.53
2019-02-22T01:43:05.942Z,48.37
2019-02-22T01:45:33.266Z,49.80
2019-02-22T01:48:00.656Z,51.67
2019-02-22T01:50:28.225Z,49.40
2019-02-22T01:52:56.161Z,51.43
2019-02-22T01:55:23.530Z,48.20
2019-02-22T01:57:51.051Z,50.40
2019-02-22T02:00:18.521Z,52.03
2019-02-22T02:02:45.980Z,51.30
2019-02-22T02:05:13.457Z,50.13
2019-02-22T02:07:40.959Z,48.60
2019-02-22T02:10:08.412Z,49.63
2019-02-22T02:12:35.891Z,47.27
2019-02-22T02:15:04.239Z,48.23
2019-02-22T02:17:32.010Z,49.57
2019-02-22T02:19:59.774Z,50.67
2019-02-22T02:22:27.142Z,50.13
2019-02-22T02:24:54.576Z,49.47
2019-02-22T02:27:22.075Z,52.00
2019-02-22T02:29:49.511Z,47.57
2019-02-22T02:32:17.566Z,47.03
2019-02-22T02:34:45.386Z,47.27
2019-02-22T02:37:12.860Z,49.83
2019-02-22T02:39:40.672Z,46.50
2019-02-22T02:42:08.102Z,47.33
2019-02-22T02:44:35.593Z,47.13
2019-02-22T02:47:03.050Z,43.97
2019-02-22T02:49:30.563Z,49.80
2019-02-22T02:51:58.087Z,47.37
2019-02-22T02:54:25.801Z,47.97
2019-02-22T02:56:53.368Z,44.80
2019-02-22T02:59:21.139Z,45.20
2019-02-22T03:01:48.510Z,46.00
2019-02-22T03:04:15.935Z,43.47
2019-02-22T03:06:54.485Z,44.27
2019-02-22T03:09:22.340Z,42.63
2019-02-22T03:17:06.646Z,41.93
2019-02-22T03:19:34.257Z,38.27
2019-02-22T03:22:01.673Z,36.90
2019-02-22T03:24:29.516Z,35.77
2019-02-22T03:26:56.927Z,34.03
2019-02-22T03:29:24.386Z,34.33
2019-02-22T03:31:51.883Z,34.43
2019-02-22T03:34:19.989Z,39.33
2019-02-22T03:36:47.358Z,35.33
2019-02-22T03:39:15.527Z,35.97
2019-02-22T03:41:43.701Z,37.30
2019-02-22T03:44:11.199Z,38.93
2019-02-22T03:46:38.926Z,37.23
2019-02-22T03:49:06.775Z,38.73
2019-02-22T03:51:34.171Z,42.03
2019-02-22T03:54:03.034Z,37.03
2019-02-22T03:56:30.662Z,40.20
2019-02-22T03:58:58.615Z,39.87
2019-02-22T04:01:26.700Z,36.97
2019-02-22T04:03:54.556Z,37.87
2019-02-22T04:06:22.261Z,39.53
2019-02-22T04:08:49.746Z,34.27
2019-02-22T04:11:17.573Z,36.90
2019-02-22T04:13:45.342Z,37.23
2019-02-22T04:16:13.023Z,37.13
2019-02-22T04:18:40.686Z,35.97
2019-02-22T04:21:08.167Z,35.30
2019-02-22T04:23:36.604Z,37.60
2019-02-22T04:26:04.172Z,34.03
2019-02-22T04:28:31.601Z,34.37
2019-02-22T04:30:59.479Z,34.27
2019-02-22T04:33:26.931Z,33.73
2019-02-22T04:35:54.708Z,31.60
2019-02-22T04:38:22.381Z,30.47
2019-02-22T04:40:50.141Z,29.00
2019-02-22T04:43:17.486Z,30.17
2019-02-22T04:45:44.939Z,29.13
2019-02-22T04:48:12.291Z,31.03
2019-02-22T04:50:39.777Z,27.87
2019-02-22T04:53:07.248Z,28.13
2019-02-22T04:55:34.705Z,27.67
2019-02-22T04:58:02.208Z,29.77
2019-02-22T05:00:30.458Z,26.87
2019-02-22T05:02:57.823Z,27.50
2019-02-22T05:05:25.298Z,26.73
2019-02-22T05:07:52.922Z,25.37
2019-02-22T05:10:20.319Z,27.57
2019-02-22T05:12:48.090Z,28.17
2019-02-22T05:15:15.530Z,27.60
2019-02-22T05:17:43.049Z,27.13
2019-02-22T05:20:10.520Z,24.57
2019-02-22T05:22:38.303Z,25.17
2019-02-22T05:25:06.211Z,21.40
2019-02-22T05:27:33.579Z,24.03
2019-02-22T05:30:00.989Z,23.00
2019-02-22T05:32:28.519Z,20.90
2019-02-22T05:34:56.124Z,20.83
2019-02-22T05:37:23.966Z,21.57
2019-02-22T05:39:51.533Z,19.90
2019-02-22T05:42:22.855Z,19.70
2019-02-22T05:44:48.379Z,19.70
2019-02-22T05:47:15.867Z,20.87
2019-02-22T05:49:43.453Z,20.40
2019-02-22T05:52:11.359Z,19.07
2019-02-22T05:54:38.946Z,18.13
2019-02-22T05:57:06.506Z,17.73
2019-02-22T05:59:33.972Z,18.50
2019-02-22T06:02:01.594Z,18.70
2019-02-22T06:04:29.140Z,18.40
2019-02-22T06:06:57.091Z,19.30
2019-02-22T06:09:24.530Z,20.40
2019-02-22T06:11:52.065Z,18.50
2019-02-22T06:14:19.605Z,17.13
2019-02-22T06:16:47.144Z,16.97
2019-02-22T06:19:15.102Z,17.17
2019-02-22T06:21:43.062Z,16.20
2019-02-22T06:24:10.579Z,17.43
2019-02-22T06:26:38.265Z,17.63
2019-02-22T06:29:05.683Z,17.43
2019-02-22T06:31:33.249Z,17.63
2019-02-22T06:34:00.790Z,16.27
2019-02-22T06:36:28.366Z,17.87
2019-02-22T06:38:55.860Z,17.73
2019-02-22T06:41:23.435Z,17.17
2019-02-22T06:43:51.426Z,17.43
2019-02-22T06:46:19.388Z,17.60
2019-02-22T06:48:47.033Z,16.50
2019-02-22T06:51:15.023Z,16.47
2019-02-22T06:53:42.518Z,17.87
2019-02-22T06:56:10.073Z,16.77
2019-02-22T06:58:37.667Z,17.07
2019-02-22T07:01:05.141Z,16.37
2019-02-22T07:03:32.595Z,17.00
2019-02-22T07:06:00.414Z,17.83
2019-02-22T07:08:27.794Z,19.23
2019-02-22T07:11:04.428Z,20.57
2019-02-22T07:13:32.581Z,19.67
2019-02-22T07:16:00.093Z,15.63
2019-02-22T07:18:28.330Z,13.33
2019-02-22T07:20:56.633Z,11.67
2019-02-22T07:23:24.165Z,14.30
2019-02-22T07:25:51.697Z,9.63
2019-02-22T07:28:19.487Z,9.97
2019-02-22T07:30:47.387Z,8.13
2019-02-22T07:33:14.865Z,7.50
2019-02-22T07:35:43.174Z,8.97
2019-02-22T07:38:10.697Z,6.73
2019-02-22T07:40:38.027Z,5.13
2019-02-22T07:43:08.291Z,6.73
2019-02-22T07:45:34.713Z,7.10
2019-02-22T07:48:02.335Z,6.83
2019-02-22T07:50:29.835Z,8.63
2019-02-22T07:52:57.437Z,7.23
2019-02-22T07:55:25.011Z,8.27
2019-02-22T07:57:52.878Z,8.07
2019-02-22T08:00:20.885Z,8.37
2019-02-22T08:02:48.389Z,9.20
2019-02-22T08:05:15.840Z,9.03
2019-02-22T08:07:43.198Z,8.07
2019-02-22T08:10:10.714Z,7.17
2019-02-22T08:12:38.568Z,9.20
2019-02-22T08:15:07.751Z,8.27
2019-02-22T08:17:35.258Z,10.10
2019-02-22T08:20:02.945Z,9.00
2019-02-22T08:22:30.943Z,9.50
2019-02-22T08:24:58.817Z,8.97
2019-02-22T08:27:26.193Z,8.37
2019-02-22T08:29:54.002Z,8.00
2019-02-22T08:32:21.982Z,8.40
2019-02-22T08:34:49.862Z,9.60
2019-02-22T08:37:17.451Z,10.00
2019-02-22T08:39:45.077Z,10.07
2019-02-22T08:42:12.920Z,11.77
2019-02-22T08:44:40.642Z,9.73
2019-02-22T08:47:08.065Z,10.47
2019-02-22T08:49:36.017Z,10.07
2019-02-22T08:52:03.546Z,10.17
2019-02-22T08:54:31.365Z,9.87
2019-02-22T08:56:58.800Z,9.63
2019-02-22T08:59:26.280Z,10.50
2019-02-22T09:01:53.743Z,11.93
2019-02-22T09:04:21.310Z,10.70
2019-02-22T09:06:52.121Z,9.97
2019-02-22T09:09:18.895Z,11.77
2019-02-22T09:11:46.394Z,9.80
2019-02-22T09:14:14.277Z,10.50
2019-02-22T09:16:41.838Z,11.43
2019-02-22T09:19:09.474Z,12.00
2019-02-22T09:21:37.137Z,12.30
2019-02-22T09:24:04.708Z,10.93
2019-02-22T09:26:32.355Z,11.40
2019-02-22T09:28:59.822Z,10.90
2019-02-22T09:31:27.881Z,11.33
2019-02-22T09:33:56.282Z,9.67
2019-02-22T09:36:23.880Z,12.37
2019-02-22T09:38:52.253Z,11.90
2019-02-22T09:41:19.738Z,11.23
2019-02-22T09:43:55.475Z,12.70
2019-02-22T09:46:18.079Z,11.50
2019-02-22T09:48:45.658Z,13.00
2019-02-22T09:51:14.421Z,13.20
2019-02-22T09:53:42.056Z,13.03
2019-02-22T09:56:09.738Z,12.20
2019-02-22T09:58:38.032Z,11.40
2019-02-22T10:01:05.826Z,11.83
2019-02-22T10:03:33.831Z,11.67
2019-02-22T10:06:01.759Z,11.97
2019-02-22T10:08:29.383Z,10.00
2019-02-22T10:10:57.082Z,9.90
2019-02-22T10:13:25.650Z,9.97
2019-02-22T10:15:53.732Z,10.63
2019-02-22T10:18:21.501Z,10.73
2019-02-22T10:20:49.468Z,9.10
2019-02-22T10:23:17.083Z,10.00
2019-02-22T10:25:44.652Z,8.93
2019-02-22T10:28:17.756Z,8.47
2019-02-22T10:30:42.442Z,8.93
2019-02-22T10:33:10.024Z,10.10
2019-02-22T10:35:38.583Z,11.57
2019-02-22T10:38:06.193Z,11.27
2019-02-22T10:40:33.922Z,9.67
2019-02-22T10:43:01.425Z,10.10
2019-02-22T10:45:29.217Z,12.43
2019-02-22T10:47:57.251Z,11.03
2019-02-22T10:50:25.215Z,11.90
2019-02-22T10:53:01.803Z,10.23
2019-02-22T10:55:22.443Z,11.17
2019-02-22T10:57:50.061Z,11.07
2019-02-22T11:00:17.783Z,11.10
2019-02-22T11:02:45.820Z,10.70
2019-02-22T11:05:13.411Z,10.00
2019-02-22T11:07:41.269Z,10.80
2019-02-22T11:10:09.887Z,10.37
2019-02-22T11:12:37.844Z,10.40
2019-02-22T11:15:07.055Z,10.57
2019-02-22T11:17:34.988Z,11.30
2019-02-22T11:20:02.565Z,11.67
2019-02-22T11:22:30.259Z,10.60
2019-02-22T11:24:58.480Z,9.63
2019-02-22T11:27:28.821Z,8.30
2019-02-22T11:29:56.589Z,9.40
2019-02-22T11:32:25.525Z,10.17
2019-02-22T11:34:53.855Z,8.90
2019-02-22T11:37:21.862Z,8.23
2019-02-22T11:39:49.558Z,10.63
2019-02-22T11:42:17.428Z,7.93
2019-02-22T11:44:45.116Z,7.53
2019-02-22T11:47:12.718Z,7.97
2019-02-22T11:49:40.413Z,10.30
2019-02-22T11:52:08.107Z,11.63
2019-02-22T11:54:35.822Z,12.07
2019-02-22T11:57:04.792Z,14.40
2019-02-22T11:59:32.434Z,16.87
2019-02-22T12:02:00.768Z,17.40
2019-02-22T12:04:28.449Z,16.17
2019-02-22T12:06:56.097Z,16.87
2019-02-22T12:09:23.901Z,17.33
2019-02-22T12:11:51.966Z,17.93
2019-02-22T12:14:19.841Z,15.63
2019-02-22T12:16:48.235Z,16.23
2019-02-22T12:19:16.007Z,17.10
2019-02-22T12:21:44.342Z,18.73
2019-02-22T12:24:12.340Z,19.27
2019-02-22T12:26:39.962Z,14.80
2019-02-22T12:29:07.766Z,17.93
2019-02-22T12:31:36.151Z,18.93
2019-02-22T12:34:03.646Z,19.87
2019-02-22T12:36:31.212Z,18.80
2019-02-22T12:38:59.529Z,18.00
2019-02-22T12:41:27.741Z,18.93
2019-02-22T12:43:55.991Z,15.80
2019-02-22T12:46:23.840Z,14.97
2019-02-22T12:48:52.553Z,14.60
2019-02-22T12:51:20.351Z,14.33
2019-02-22T12:53:48.182Z,12.37
2019-02-22T12:56:15.937Z,14.50
2019-02-22T12:58:44.413Z,13.00
2019-02-22T13:01:12.768Z,9.43
2019-02-22T13:03:40.595Z,12.40
2019-02-22T13:06:08.367Z,11.00
2019-02-22T13:08:38.778Z,9.10
2019-02-22T13:11:07.044Z,8.67
2019-02-22T13:13:35.797Z,8.47
2019-02-22T13:16:03.577Z,9.00
2019-02-22T13:18:32.300Z,8.90
2019-02-22T13:21:00.713Z,9.83
2019-02-22T13:23:29.365Z,8.70
2019-02-22T13:26:02.322Z,9.43
2019-02-22T13:28:30.775Z,9.43
2019-02-22T13:30:58.721Z,10.03
2019-02-22T13:33:26.705Z,9.77
2019-02-22T13:35:54.763Z,10.27
2019-02-22T13:38:22.398Z,9.47
2019-02-22T13:40:51.976Z,9.47
2019-02-22T13:43:20.917Z,10.07
2019-02-22T13:45:52.475Z,10.37
2019-02-22T13:48:25.508Z,9.90
2019-02-22T13:50:53.039Z,10.50
2019-02-22T13:53:21.593Z,9.90
2019-02-22T13:55:49.734Z,10.00
2019-02-22T13:58:17.621Z,9.27
2019-02-22T14:00:45.406Z,10.07
2019-02-22T14:03:13.785Z,10.67
2019-02-22T14:05:41.886Z,11.10
2019-02-22T14:08:09.994Z,11.97
2019-02-22T14:10:37.762Z,11.63
2019-02-22T14:13:05.421Z,11.57
2019-02-22T14:15:38.035Z,12.87
2019-02-22T14:18:03.188Z,13.30
2019-02-22T14:20:31.052Z,14.40
2019-02-22T14:22:59.109Z,15.13
2019-02-22T14:25:36.620Z,15.63
2019-02-22T14:28:05.689Z,14.97
2019-02-22T14:30:34.226Z,14.50
2019-02-22T14:33:02.576Z,13.83
2019-02-22T14:35:30.739Z,13.90
2019-02-22T14:37:58.577Z,13.47
2019-02-22T14:40:26.296Z,14.17
2019-02-22T14:42:54.531Z,15.37
2019-02-22T14:45:22.638Z,13.60
2019-02-22T14:47:50.546Z,12.97
2019-02-22T14:50:18.286Z,12.00
2019-02-22T14:52:46.065Z,13.20
2019-02-22T14:55:13.620Z,12.47
2019-02-22T14:57:48.083Z,11.37
2019-02-22T15:00:16.157Z,12.17
2019-02-22T15:02:43.696Z,12.83
2019-02-22T15:05:12.457Z,12.97
2019-02-22T15:07:40.265Z,13.87
2019-02-22T15:10:08.271Z,13.70
2019-02-22T15:12:35.919Z,14.43
2019-02-22T15:15:04.742Z,14.90
2019-02-22T15:17:40.524Z,15.50
2019-02-22T15:20:08.573Z,16.47
2019-02-22T15:22:36.089Z,15.93
2019-02-22T15:25:04.905Z,16.60
2019-02-22T15:27:32.877Z,15.57
2019-02-22T15:30:00.761Z,14.80
2019-02-22T15:32:28.184Z,14.63
2019-02-22T15:34:55.676Z,15.23
2019-02-22T15:37:23.390Z,14.87
2019-02-22T15:39:50.968Z,16.17
2019-02-22T15:42:18.505Z,15.47
2019-02-22T15:44:46.613Z,15.00
2019-02-22T15:47:14.075Z,16.40
2019-02-22T15:49:42.343Z,15.80
2019-02-22T15:52:10.407Z,16.20
2019-02-22T15:54:38.481Z,18.63
2019-02-22T15:57:06.021Z,16.50
2019-02-22T15:59:33.628Z,16.43
2019-02-22T16:02:01.060Z,16.87
2019-02-22T16:04:45.280Z,17.67
2019-02-22T16:07:13.223Z,16.83
2019-02-22T16:09:40.716Z,16.33
2019-02-22T16:12:08.297Z,16.20
2019-02-22T16:14:36.040Z,17.10
2019-02-22T16:17:03.921Z,16.53
2019-02-22T16:19:32.043Z,16.73
2019-02-22T16:22:00.086Z,16.03
2019-02-22T16:24:27.800Z,17.83
2019-02-22T16:27:02.461Z,16.90
2019-02-22T16:29:33.670Z,16.70
2019-02-22T16:32:02.004Z,17.27
2019-02-22T16:34:30.013Z,17.20
2019-02-22T16:36:58.026Z,17.03
2019-02-22T16:39:26.003Z,17.93
2019-02-22T16:41:53.688Z,19.87
2019-02-22T16:44:21.504Z,17.87
2019-02-22T16:46:49.892Z,19.10
2019-02-22T16:49:17.537Z,18.93
2019-02-22T16:51:45.222Z,17.77
2019-02-22T16:54:13.698Z,17.60
2019-02-22T16:56:41.080Z,17.43
2019-02-22T16:59:08.994Z,17.50
2019-02-22T17:01:36.642Z,19.57
2019-02-22T17:04:04.871Z,18.93
2019-02-22T17:06:32.431Z,17.50
2019-02-22T17:09:00.428Z,17.57
2019-02-22T17:11:28.533Z,18.27
2019-02-22T17:13:56.163Z,18.00
2019-02-22T17:16:23.717Z,19.13
2019-02-22T17:18:51.677Z,19.40
2019-02-22T17:21:19.838Z,17.77
2019-02-22T17:23:47.579Z,18.27
2019-02-22T17:26:16.058Z,19.23
2019-02-22T17:28:43.527Z,17.83
2019-02-22T17:31:11.476Z,18.53
2019-02-22T17:33:39.199Z,18.53
2019-02-22T17:36:07.020Z,16.90
2019-02-22T17:38:34.779Z,17.97
2019-02-22T17:41:02.254Z,17.97
2019-02-22T17:43:32.077Z,18.33
2019-02-22T17:46:02.625Z,15.57
2019-02-22T17:48:38.136Z,15.60
2019-02-22T17:51:05.615Z,16.97
2019-02-22T17:53:34.541Z,16.23
2019-02-22T17:56:02.444Z,15.83
2019-02-22T17:58:30.216Z,18.47
2019-02-22T18:00:58.713Z,20.40
2019-02-22T18:03:26.349Z,17.50
2019-02-22T18:05:53.979Z,19.97
2019-02-22T18:08:21.903Z,19.20
2019-02-22T18:10:49.415Z,20.93
2019-02-22T18:13:16.977Z,20.70
2019-02-22T18:15:44.521Z,21.50
2019-02-22T18:18:12.607Z,19.87
2019-02-22T18:20:40.282Z,20.57
2019-02-22T18:23:07.967Z,19.03
2019-02-22T18:25:35.954Z,19.57
2019-02-22T18:28:03.812Z,20.50
2019-02-22T18:30:31.341Z,21.67
2019-02-22T18:32:59.240Z,21.83
2019-02-22T18:35:26.735Z,21.83
2019-02-22T18:37:54.569Z,20.90
2019-02-22T18:40:22.099Z,23.60
2019-02-22T18:42:50.142Z,22.73
2019-02-22T18:45:17.655Z,24.20
2019-02-22T18:47:45.292Z,25.60
2019-02-22T18:50:13.221Z,25.77
2019-02-22T18:52:41.282Z,26.43
2019-02-22T18:55:09.420Z,24.17
2019-02-22T18:57:36.991Z,23.43
2019-02-22T19:00:07.818Z,25.27
2019-02-22T19:02:35.449Z,24.60
2019-02-22T19:05:04.182Z,22.27
2019-02-22T19:07:32.328Z,24.33
2019-02-22T19:09:59.915Z,24.83
2019-02-22T19:12:27.776Z,23.77
2019-02-22T19:14:58.004Z,25.33
2019-02-22T19:17:30.419Z,27.30
2019-02-22T19:19:58.753Z,25.17
2019-02-22T19:22:26.570Z,25.50
2019-02-22T19:24:54.009Z,23.27
2019-02-22T19:27:22.393Z,25.63
2019-02-22T19:29:50.970Z,23.73
2019-02-22T19:32:19.000Z,22.73
2019-02-22T19:34:47.217Z,23.43
2019-02-22T19:37:15.175Z,23.80
2019-02-22T19:39:42.629Z,26.53
2019-02-22T19:42:11.162Z,24.53
2019-02-22T19:44:39.051Z,25.00
2019-02-22T19:47:06.495Z,23.47
2019-02-22T19:49:34.501Z,24.00
2019-02-22T19:52:02.678Z,25.67
2019-02-22T19:54:30.577Z,29.07
2019-02-22T19:56:58.333Z,22.63
2019-02-22T19:59:26.464Z,26.37
2019-02-22T20:01:54.465Z,24.97
2019-02-22T20:04:22.760Z,24.33
2019-02-22T20:06:50.558Z,25.00
2019-02-22T20:09:18.582Z,27.23
2019-02-22T20:11:48.555Z,24.63
2019-02-22T20:14:16.208Z,20.80
2019-02-22T20:16:44.501Z,21.87
2019-02-22T20:19:12.081Z,24.03
2019-02-22T20:21:39.637Z,23.13
2019-02-22T20:24:07.185Z,23.60
2019-02-22T20:26:35.510Z,23.33
2019-02-22T20:29:03.048Z,21.33
2019-02-22T20:31:30.692Z,20.00
2019-02-22T20:33:58.216Z,21.00
2019-02-22T20:36:28.703Z,19.43
2019-02-22T20:38:58.624Z,21.93
2019-02-22T20:41:26.529Z,20.97
2019-02-22T20:43:54.524Z,22.37
2019-02-22T20:46:22.067Z,23.43
2019-02-22T20:49:00.329Z,22.87
2019-02-22T20:51:19.105Z,21.23
2019-02-22T20:53:47.091Z,20.80
2019-02-22T20:56:14.580Z,21.33
2019-02-22T20:58:43.086Z,20.93
2019-02-22T21:01:14.746Z,21.20
2019-02-22T21:03:40.825Z,20.93
2019-02-22T21:06:08.428Z,21.10
2019-02-22T21:08:36.094Z,22.27
2019-02-22T21:11:03.590Z,21.77
2019-02-22T21:13:31.493Z,22.57
2019-02-22T21:15:59.034Z,20.93
2019-02-22T21:18:26.572Z,19.97
2019-02-22T21:20:54.071Z,22.80
2019-02-22T21:23:21.659Z,21.20
2019-02-22T21:25:49.189Z,21.40
2019-02-22T21:28:17.567Z,19.87
2019-02-22T21:30:45.542Z,19.93
2019-02-22T21:33:13.984Z,21.30
2019-02-22T21:35:41.422Z,20.80
2019-02-22T21:38:09.016Z,19.93
2019-02-22T21:40:37.449Z,22.37
2019-02-22T21:43:05.065Z,18.43
2019-02-22T21:45:33.032Z,20.33
2019-02-22T21:48:01.056Z,17.87
2019-02-22T21:50:31.770Z,18.87
2019-02-22T21:52:59.291Z,16.03
2019-02-22T21:55:26.930Z,16.83
2019-02-22T21:57:54.508Z,17.87
2019-02-22T22:00:22.295Z,18.23
2019-02-22T22:02:50.186Z,15.70
2019-02-22T22:05:19.648Z,15.70
2019-02-22T22:07:48.322Z,15.17
2019-02-22T22:10:16.120Z,15.97
2019-02-22T22:12:44.099Z,19.33
2019-02-22T22:15:11.712Z,14.70
2019-02-22T22:17:39.192Z,15.87
2019-02-22T22:20:10.586Z,14.20
2019-02-22T22:22:38.633Z,16.43
2019-02-22T22:25:07.254Z,14.90
2019-02-22T22:27:37.465Z,17.33
2019-02-22T22:30:05.347Z,15.23
2019-02-22T22:32:32.779Z,14.87
2019-02-22T22:35:01.514Z,15.43
2019-02-22T22:37:29.151Z,16.10
2019-02-22T22:39:57.393Z,15.37
2019-02-22T22:42:25.144Z,17.13
2019-02-22T22:44:53.049Z,18.43
2019-02-22T22:47:21.874Z,16.20
2019-02-22T22:49:50.189Z,14.80
2019-02-22T22:52:17.705Z,16.60
2019-02-22T22:54:45.225Z,17.93
2019-02-22T22:57:13.292Z,15.87
2019-02-22T22:59:41.186Z,15.93
2019-02-22T23:02:08.942Z,16.43
2019-02-22T23:04:36.652Z,15.20
2019-02-22T23:07:04.786Z,17.27
2019-02-22T23:09:33.454Z,18.60
2019-02-22T23:12:00.981Z,16.73
2019-02-22T23:14:28.945Z,17.67
2019-02-22T23:16:56.477Z,17.53
2019-02-22T23:19:23.959Z,17.80
2019-02-22T23:21:51.539Z,17.23
2019-02-22T23:24:19.721Z,17.27
2019-02-22T23:26:47.595Z,16.07
2019-02-22T23:29:15.643Z,16.63
2019-02-22T23:31:43.536Z,19.83
2019-02-22T23:34:11.799Z,18.63
2019-02-22T23:36:39.619Z,18.53
2019-02-22T23:39:08.221Z,18.37
2019-02-22T23:41:35.618Z,17.07
2019-02-22T23:44:03.858Z,18.37
2019-02-22T23:46:32.026Z,17.23
2019-02-22T23:48:59.785Z,17.87
2019-02-22T23:51:27.266Z,19.20
2019-02-22T23:53:54.701Z,17.10
2019-02-22T23:56:22.539Z,18.47
2019-02-22T23:58:50.532Z,21.17
